PWSweather.com
Personal Weather Stations
Station Observations
WARREN
Narre Warren , MelbourneAU

Narre Warren MelbourneAU

Lat: -38.0314269, Lon: 145.3160851

Elevation: 24

Station Type: Digiteck

http://www.aussiedownunder.net/

Latest ConditionsUpdated 12:30:02 PM GMT+10:10 Saturday, Feb 24, 2018
Currently Today's Max Today's Min Today's Average
Temperature 79.7°F26.5°C 91.4°F33.0°C 79.3°F26.3°C 85.8°F29.9°C
Dew Point 66.5°F19.2°C 67.7°F19.8°C 52.6°F11.4°C 59.1°F15.1°C
Winds 3.9 mph WNW6.3 kmh WNW 5.7 mph NE9.2 kmh NE - 4.3 mph 6.9 kmh
Wind Gusts 10.7 mph17.2 kmh 18.3 mph29.5 kmh - -
Humidity 64% 65% 30% 41%
Pressure 29.61 in1002.7 mb 29.61 in1002.7 mb 29.52 in999.7 mb -
Hour Temp Dew Point Humidity Winds Wind Gusts Pressure Precip Precip Rate Daily Precip Total
12:30 PM 79.7°F26.5°C 66.5°F19.2°C 64% 3.9 mph WNW6.3 kmh WNW 10.7 mph17.2 kmh 29.61 in1002.7 mb 0.00 in0.0 mm 0.00 in0.0 mm 0.00 in0.0 mm
12:15 PM 81.3°F27.4°C 67.6°F19.8°C 63% 3.9 mph NW6.3 kmh NW 9.8 mph15.8 kmh 29.60 in1002.4 mb 0.00 in0.0 mm 0.00 in0.0 mm 0.00 in0.0 mm
12:00 PM 79.3°F26.3°C 66.6°F19.2°C 65% 4.9 mph NW7.9 kmh NW 11.4 mph18.3 kmh 29.59 in1002.0 mb 0.00 in0.0 mm 0.00 in0.0 mm 0.00 in0.0 mm
11:45 AM 82.4°F28.0°C 67.7°F19.8°C 61% 5.2 mph NW8.4 kmh NW 14.5 mph23.3 kmh 29.57 in1001.4 mb 0.00 in0.0 mm 0.00 in0.0 mm 0.00 in0.0 mm
11:30 AM 84.4°F29.1°C 67.0°F19.4°C 56% 4.7 mph W7.6 kmh W 9.8 mph15.8 kmh 29.57 in1001.4 mb 0.00 in0.0 mm 0.00 in0.0 mm 0.00 in0.0 mm
11:15 AM 84.4°F29.1°C 67.0°F19.4°C 56% 4.0 mph NW6.4 kmh NW 11.4 mph18.3 kmh 29.57 in1001.4 mb 0.00 in0.0 mm 0.00 in0.0 mm 0.00 in0.0 mm
11:00 AM 84.4°F29.1°C 66.5°F19.2°C 55% 4.3 mph NW6.9 kmh NW 9.2 mph14.8 kmh 29.57 in1001.4 mb 0.00 in0.0 mm 0.00 in0.0 mm 0.00 in0.0 mm
10:45 AM 84.7°F29.3°C 65.8°F18.8°C 53% 4.4 mph NW7.1 kmh NW 13.0 mph20.9 kmh 29.57 in1001.4 mb 0.00 in0.0 mm 0.00 in0.0 mm 0.00 in0.0 mm
10:30 AM 88.2°F31.2°C 64.8°F18.2°C 46% 4.6 mph WNW7.4 kmh WNW 10.7 mph17.2 kmh 29.57 in1001.4 mb 0.00 in0.0 mm 0.00 in0.0 mm 0.00 in0.0 mm
10:15 AM 86.7°F30.4°C 64.1°F17.8°C 47% 2.9 mph WNW4.7 kmh WNW 9.2 mph14.8 kmh 29.56 in1001.0 mb 0.00 in0.0 mm 0.00 in0.0 mm 0.00 in0.0 mm
10:00 AM 87.6°F30.9°C 63.7°F17.6°C 45% 2.7 mph NW4.3 kmh NW 10.7 mph17.2 kmh 29.56 in1001.0 mb 0.00 in0.0 mm 0.00 in0.0 mm 0.00 in0.0 mm
09:45 AM 85.8°F29.9°C 62.7°F17.1°C 46% 3.0 mph ENE4.8 kmh ENE 9.2 mph14.8 kmh 29.56 in1001.0 mb 0.00 in0.0 mm 0.00 in0.0 mm 0.00 in0.0 mm
09:30 AM 84.9°F29.4°C 61.9°F16.6°C 46% 3.5 mph NE5.6 kmh NE 11.4 mph18.3 kmh 29.56 in1001.0 mb 0.00 in0.0 mm 0.00 in0.0 mm 0.00 in0.0 mm
09:15 AM 84.9°F29.4°C 61.9°F16.6°C 46% 3.4 mph NW5.5 kmh NW 13.0 mph20.9 kmh 29.57 in1001.4 mb 0.00 in0.0 mm 0.00 in0.0 mm 0.00 in0.0 mm
09:00 AM 85.5°F29.7°C 62.4°F16.9°C 46% 3.1 mph NE5.0 kmh NE 12.1 mph19.5 kmh 29.56 in1001.0 mb 0.00 in0.0 mm 0.00 in0.0 mm 0.00 in0.0 mm
08:45 AM 86.2°F30.1°C 61.8°F16.6°C 44% 4.6 mph E7.4 kmh E 18.3 mph29.5 kmh 29.55 in1000.7 mb 0.00 in0.0 mm 0.00 in0.0 mm 0.00 in0.0 mm
08:30 AM 87.6°F30.9°C 62.4°F16.9°C 43% 4.2 mph NNW6.8 kmh NNW 15.2 mph24.5 kmh 29.55 in1000.7 mb 0.00 in0.0 mm 0.00 in0.0 mm 0.00 in0.0 mm
08:15 AM 91.4°F33.0°C 62.3°F16.8°C 38% 4.3 mph NNE6.9 kmh NNE 14.5 mph23.3 kmh 29.55 in1000.7 mb 0.00 in0.0 mm 0.00 in0.0 mm 0.00 in0.0 mm
08:00 AM 87.8°F31.0°C 61.2°F16.2°C 41% 3.9 mph NE6.3 kmh NE 11.4 mph18.3 kmh 29.54 in1000.3 mb 0.00 in0.0 mm 0.00 in0.0 mm 0.00 in0.0 mm
07:45 AM 86.4°F30.2°C 61.3°F16.3°C 43% 4.8 mph ENE7.7 kmh ENE 13.6 mph21.9 kmh 29.54 in1000.3 mb 0.00 in0.0 mm 0.00 in0.0 mm 0.00 in0.0 mm
07:30 AM 85.8°F29.9°C 61.4°F16.3°C 44% 4.7 mph N7.6 kmh N 11.4 mph18.3 kmh 29.54 in1000.3 mb 0.00 in0.0 mm 0.00 in0.0 mm 0.00 in0.0 mm
07:15 AM 85.8°F29.9°C 61.4°F16.3°C 44% 3.7 mph NE6.0 kmh NE 11.4 mph18.3 kmh 29.54 in1000.3 mb 0.00 in0.0 mm 0.00 in0.0 mm 0.00 in0.0 mm
07:00 AM 85.8°F29.9°C 61.4°F16.3°C 44% 3.6 mph N5.8 kmh N 10.7 mph17.2 kmh 29.54 in1000.3 mb 0.00 in0.0 mm 0.00 in0.0 mm 0.00 in0.0 mm
06:45 AM 85.8°F29.9°C 60.8°F16.0°C 43% 4.4 mph N7.1 kmh N 13.6 mph21.9 kmh 29.54 in1000.3 mb 0.00 in0.0 mm 0.00 in0.0 mm 0.00 in0.0 mm
06:30 AM 84.2°F29.0°C 60.0°F15.6°C 44% 3.7 mph NNW6.0 kmh NNW 9.8 mph15.8 kmh 29.54 in1000.3 mb 0.00 in0.0 mm 0.00 in0.0 mm 0.00 in0.0 mm
06:15 AM 84.0°F28.9°C 59.8°F15.4°C 44% 3.0 mph N4.8 kmh N 10.7 mph17.2 kmh 29.54 in1000.3 mb 0.00 in0.0 mm 0.00 in0.0 mm 0.00 in0.0 mm
06:00 AM 84.4°F29.1°C 58.8°F14.9°C 42% 4.3 mph NNE6.9 kmh NNE 12.1 mph19.5 kmh 29.53 in1000.0 mb 0.00 in0.0 mm 0.00 in0.0 mm 0.00 in0.0 mm
05:45 AM 84.9°F29.4°C 58.0°F14.4°C 40% 5.7 mph NNE9.2 kmh NNE 14.5 mph23.3 kmh 29.53 in1000.0 mb 0.00 in0.0 mm 0.00 in0.0 mm 0.00 in0.0 mm
05:30 AM 85.3°F29.6°C 56.8°F13.8°C 38% 4.9 mph NNE7.9 kmh NNE 13.0 mph20.9 kmh 29.52 in999.7 mb 0.00 in0.0 mm 0.00 in0.0 mm 0.00 in0.0 mm
05:15 AM 85.3°F29.6°C 56.1°F13.4°C 37% 4.9 mph NNE7.9 kmh NNE 14.5 mph23.3 kmh 29.53 in1000.0 mb 0.00 in0.0 mm 0.00 in0.0 mm 0.00 in0.0 mm
05:00 AM 85.3°F29.6°C 56.1°F13.4°C 37% 3.9 mph N6.3 kmh N 12.1 mph19.5 kmh 29.53 in1000.0 mb 0.00 in0.0 mm 0.00 in0.0 mm 0.00 in0.0 mm
04:45 AM 85.5°F29.7°C 56.3°F13.5°C 37% 4.4 mph NNE7.1 kmh NNE 17.4 mph28.0 kmh 29.53 in1000.0 mb 0.00 in0.0 mm 0.00 in0.0 mm 0.00 in0.0 mm
04:30 AM 85.3°F29.6°C 55.4°F13.0°C 36% 3.6 mph N5.8 kmh N 10.7 mph17.2 kmh 29.53 in1000.0 mb 0.00 in0.0 mm 0.00 in0.0 mm 0.00 in0.0 mm
04:15 AM 85.3°F29.6°C 54.6°F12.6°C 35% 3.6 mph NNW5.8 kmh NNW 14.5 mph23.3 kmh 29.54 in1000.3 mb 0.00 in0.0 mm 0.00 in0.0 mm 0.00 in0.0 mm
04:00 AM 85.3°F29.6°C 55.4°F13.0°C 36% 2.7 mph W4.3 kmh W 9.8 mph15.8 kmh 29.54 in1000.3 mb 0.00 in0.0 mm 0.00 in0.0 mm 0.00 in0.0 mm
03:45 AM 85.6°F29.8°C 54.9°F12.7°C 35% 3.7 mph NE6.0 kmh NE 9.8 mph15.8 kmh 29.54 in1000.3 mb 0.00 in0.0 mm 0.00 in0.0 mm 0.00 in0.0 mm
03:30 AM 85.8°F29.9°C 54.3°F12.4°C 34% 4.3 mph ENE6.9 kmh ENE 14.5 mph23.3 kmh 29.54 in1000.3 mb 0.00 in0.0 mm 0.00 in0.0 mm 0.00 in0.0 mm
03:15 AM 86.4°F30.2°C 53.9°F12.2°C 33% 4.2 mph N6.8 kmh N 12.1 mph19.5 kmh 29.55 in1000.7 mb 0.00 in0.0 mm 0.00 in0.0 mm 0.00 in0.0 mm
03:00 AM 86.5°F30.3°C 54.1°F12.3°C 33% 4.0 mph NE6.4 kmh NE 15.9 mph25.6 kmh 29.55 in1000.7 mb 0.00 in0.0 mm 0.00 in0.0 mm 0.00 in0.0 mm
02:45 AM 86.9°F30.5°C 54.4°F12.4°C 33% 5.3 mph NE8.5 kmh NE 18.3 mph29.5 kmh 29.55 in1000.7 mb 0.00 in0.0 mm 0.00 in0.0 mm 0.00 in0.0 mm
02:30 AM 87.3°F30.7°C 53.9°F12.2°C 32% 4.9 mph NNW7.9 kmh NNW 13.0 mph20.9 kmh 29.55 in1000.7 mb 0.00 in0.0 mm 0.00 in0.0 mm 0.00 in0.0 mm
02:15 AM 87.6°F30.9°C 53.3°F11.8°C 31% 5.0 mph NNW8.0 kmh NNW 15.2 mph24.5 kmh 29.55 in1000.7 mb 0.00 in0.0 mm 0.00 in0.0 mm 0.00 in0.0 mm
02:00 AM 87.4°F30.8°C 53.1°F11.7°C 31% 5.0 mph N8.0 kmh N 14.5 mph23.3 kmh 29.55 in1000.7 mb 0.00 in0.0 mm 0.00 in0.0 mm 0.00 in0.0 mm
01:45 AM 87.6°F30.9°C 53.3°F11.8°C 31% 5.7 mph NE9.2 kmh NE 15.2 mph24.5 kmh 29.55 in1000.7 mb 0.00 in0.0 mm 0.00 in0.0 mm 0.00 in0.0 mm
01:30 AM 87.6°F30.9°C 53.3°F11.8°C 31% 5.4 mph NE8.7 kmh NE 13.0 mph20.9 kmh 29.55 in1000.7 mb 0.00 in0.0 mm 0.00 in0.0 mm 0.00 in0.0 mm
01:15 AM 87.4°F30.8°C 53.1°F11.7°C 31% 4.7 mph NNE7.6 kmh NNE 13.0 mph20.9 kmh 29.56 in1001.0 mb 0.00 in0.0 mm 0.00 in0.0 mm 0.00 in0.0 mm
01:00 AM 87.8°F31.0°C 52.6°F11.4°C 30% 5.2 mph NNE8.4 kmh NNE 13.6 mph21.9 kmh 29.55 in1000.7 mb 0.00 in0.0 mm 0.00 in0.0 mm 0.00 in0.0 mm
12:45 AM 88.2°F31.2°C 52.9°F11.6°C 30% 5.6 mph NE9.0 kmh NE 15.2 mph24.5 kmh 29.56 in1001.0 mb 0.00 in0.0 mm 0.00 in0.0 mm 0.00 in0.0 mm
12:30 AM 87.8°F31.0°C 52.6°F11.4°C 30% 4.9 mph NE7.9 kmh NE 12.1 mph19.5 kmh 29.57 in1001.4 mb 0.00 in0.0 mm 0.00 in0.0 mm 0.00 in0.0 mm
12:15 AM 87.6°F30.9°C 53.3°F11.8°C 31% 5.4 mph NE8.7 kmh NE 15.2 mph24.5 kmh 29.57 in1001.4 mb 0.00 in0.0 mm 0.00 in0.0 mm 0.00 in0.0 mm
12:00 AM 87.4°F30.8°C 53.1°F11.7°C 31% 5.0 mph NE8.0 kmh NE 13.6 mph21.9 kmh 29.57 in1001.4 mb 0.00 in0.0 mm 0.00 in0.0 mm 0.00 in0.0 mm